createdAt,value
2022-10-30T00:01:24.242Z,99475.72
2022-10-30T00:03:52.704Z,99489.19
2022-10-30T00:06:21.212Z,99482.63
2022-10-30T00:08:49.522Z,99487.25
2022-10-30T00:11:17.860Z,99483.97
2022-10-30T00:13:46.260Z,99489.34
2022-10-30T00:16:14.717Z,99487.13
2022-10-30T00:18:44.180Z,99496.81
2022-10-30T00:21:14.882Z,99493.34
2022-10-30T00:23:55.081Z,99506.59
2022-10-30T00:26:24.433Z,99507.41
2022-10-30T00:28:58.263Z,99508.72
2022-10-30T00:31:26.599Z,99507.53
2022-10-30T00:33:56.191Z,99516.00
2022-10-30T00:36:25.096Z,99518.84
2022-10-30T00:38:53.467Z,99516.88
2022-10-30T00:41:25.821Z,99522.78
2022-10-30T00:43:54.586Z,99525.16
2022-10-30T00:46:27.847Z,99523.50
2022-10-30T00:49:01.867Z,99518.72
2022-10-30T00:51:33.120Z,99523.84
2022-10-30T00:54:04.865Z,99520.63
2022-10-30T00:56:33.907Z,99525.28
2022-10-30T00:59:09.638Z,99525.59
2022-10-30T01:01:41.574Z,99533.06
2022-10-30T01:04:10.554Z,99526.22
2022-10-30T01:06:43.487Z,99526.53
2022-10-30T01:09:11.856Z,99535.72
2022-10-30T01:11:40.242Z,99535.31
2022-10-30T01:14:11.504Z,99543.25
2022-10-30T01:16:51.612Z,99537.69
2022-10-30T01:19:22.927Z,99545.59
2022-10-30T01:22:13.019Z,99547.97
2022-10-30T01:25:06.030Z,99547.00
2022-10-30T01:27:50.197Z,99551.84
2022-10-30T01:30:36.291Z,99555.69
2022-10-30T01:33:10.823Z,99557.78
2022-10-30T01:35:48.621Z,99560.88
2022-10-30T01:38:36.449Z,99558.09
2022-10-30T01:41:04.789Z,99558.41
2022-10-30T01:43:35.323Z,99563.28
2022-10-30T01:46:24.216Z,99562.53
2022-10-30T01:49:02.824Z,99558.47
2022-10-30T01:51:40.344Z,99567.66
2022-10-30T01:54:47.708Z,99569.97
2022-10-30T01:57:34.573Z,99568.75
2022-10-30T02:00:12.641Z,99566.22
2022-10-30T02:02:41.933Z,99567.75
2022-10-30T02:05:13.265Z,99567.75
2022-10-30T02:07:41.562Z,99571.63
2022-10-30T02:10:11.876Z,99566.03
2022-10-30T02:12:40.730Z,99561.19
2022-10-30T02:15:09.892Z,99565.53
2022-10-30T02:17:39.258Z,99560.72
2022-10-30T02:20:08.999Z,99566.59
2022-10-30T02:22:37.363Z,99562.00
2022-10-30T02:25:05.941Z,99564.28
2022-10-30T02:27:34.272Z,99560.22
2022-10-30T02:30:02.665Z,99560.47
2022-10-30T02:32:31.041Z,99559.16
2022-10-30T02:34:59.435Z,99557.91
2022-10-30T02:37:28.297Z,99553.31
2022-10-30T02:39:56.611Z,99558.41
2022-10-30T02:42:24.966Z,99558.13
2022-10-30T02:44:53.308Z,99553.75
2022-10-30T02:47:21.743Z,99546.59
2022-10-30T02:49:50.109Z,99543.78
2022-10-30T02:52:18.462Z,99551.13
2022-10-30T02:54:46.759Z,99553.94
2022-10-30T02:57:15.054Z,99543.47
2022-10-30T02:59:43.373Z,99545.50
2022-10-30T03:02:11.748Z,99536.50
2022-10-30T03:04:40.133Z,99539.28
2022-10-30T03:07:08.506Z,99535.19
2022-10-30T03:09:36.800Z,99535.91
2022-10-30T03:12:05.293Z,99527.69
2022-10-30T03:14:33.620Z,99529.16
2022-10-30T03:17:01.884Z,99527.63
2022-10-30T03:19:30.186Z,99525.53
2022-10-30T03:21:58.483Z,99517.84
2022-10-30T03:24:27.456Z,99516.28
2022-10-30T03:26:55.818Z,99519.56
2022-10-30T03:29:24.121Z,99514.69
2022-10-30T03:31:52.488Z,99510.28
2022-10-30T03:34:20.931Z,99507.97
2022-10-30T03:36:49.693Z,99509.19
2022-10-30T03:39:18.076Z,99507.84
2022-10-30T03:41:46.413Z,99495.00
2022-10-30T03:44:14.957Z,99491.66
2022-10-30T03:46:43.345Z,99497.22
2022-10-30T03:49:11.735Z,99486.66
2022-10-30T03:51:40.089Z,99491.72
2022-10-30T03:54:08.591Z,99489.63
2022-10-30T03:56:36.906Z,99491.63
2022-10-30T03:59:05.230Z,99483.09
2022-10-30T04:01:33.700Z,99482.03
2022-10-30T04:04:02.169Z,99484.78
2022-10-30T04:06:30.481Z,99479.63
2022-10-30T04:08:58.828Z,99488.56
2022-10-30T04:11:27.202Z,99477.75
2022-10-30T04:13:55.590Z,99482.31
2022-10-30T04:16:23.991Z,99474.31
2022-10-30T04:18:52.302Z,99465.81
2022-10-30T04:21:20.627Z,99470.06
2022-10-30T04:23:50.202Z,99459.75
2022-10-30T04:26:18.514Z,99459.69
2022-10-30T04:28:49.356Z,99457.31
2022-10-30T04:31:17.641Z,99451.38
2022-10-30T04:33:45.946Z,99453.34
2022-10-30T04:36:14.262Z,99451.75
2022-10-30T04:38:42.574Z,99443.44
2022-10-30T04:41:11.218Z,99441.81
2022-10-30T04:43:39.540Z,99427.63
2022-10-30T04:46:07.924Z,99419.63
2022-10-30T04:48:38.230Z,99421.59
2022-10-30T04:51:06.981Z,99420.00
2022-10-30T04:53:35.285Z,99419.16
2022-10-30T04:56:03.612Z,99415.25
2022-10-30T04:58:32.013Z,99411.34
2022-10-30T05:01:06.003Z,99403.34
2022-10-30T05:03:34.879Z,99393.03
2022-10-30T05:06:07.141Z,99391.22
2022-10-30T05:08:35.605Z,99391.97
2022-10-30T05:11:06.409Z,99380.91
2022-10-30T05:13:34.742Z,99385.03
2022-10-30T05:16:03.021Z,99378.84
2022-10-30T05:18:31.330Z,99371.69
2022-10-30T05:21:03.073Z,99363.97
2022-10-30T05:23:31.508Z,99360.84
2022-10-30T05:26:02.199Z,99373.31
2022-10-30T05:28:30.743Z,99355.53
2022-10-30T05:30:59.068Z,99346.94
2022-10-30T05:33:27.382Z,99341.19
2022-10-30T05:35:56.316Z,99335.22
2022-10-30T05:38:25.139Z,99331.75
2022-10-30T05:40:53.495Z,99322.44
2022-10-30T05:43:22.390Z,99328.94
2022-10-30T05:45:51.240Z,99330.13
2022-10-30T05:48:19.708Z,99314.16
2022-10-30T05:50:48.078Z,99315.13
2022-10-30T05:53:16.432Z,99310.25
2022-10-30T05:55:44.736Z,99304.25
2022-10-30T05:58:15.189Z,99301.09
2022-10-30T06:00:45.342Z,99288.50
2022-10-30T06:03:14.617Z,99272.72
2022-10-30T06:05:46.372Z,99271.09
2022-10-30T06:08:17.241Z,99260.75
2022-10-30T06:10:45.725Z,99256.84
2022-10-30T06:13:14.049Z,99257.81
2022-10-30T06:15:43.326Z,99251.81
2022-10-30T06:18:11.664Z,99252.56
2022-10-30T06:20:39.941Z,99244.88
2022-10-30T06:23:10.934Z,99247.91
2022-10-30T06:25:41.560Z,99238.66
2022-10-30T06:28:13.767Z,99233.22
2022-10-30T06:30:42.163Z,99229.09
2022-10-30T06:33:11.626Z,99228.53
2022-10-30T06:35:40.012Z,99225.94
2022-10-30T06:38:09.713Z,99222.56
2022-10-30T06:40:38.040Z,99211.25
2022-10-30T06:43:06.392Z,99210.72
2022-10-30T06:45:34.787Z,99202.44
2022-10-30T06:48:03.331Z,99208.84
2022-10-30T06:50:32.413Z,99206.22
2022-10-30T06:53:00.779Z,99198.69
2022-10-30T06:55:29.134Z,99195.13
2022-10-30T06:57:58.702Z,99186.88
2022-10-30T07:00:27.247Z,99183.50
2022-10-30T07:03:03.471Z,99185.22
2022-10-30T07:05:32.082Z,99182.59
2022-10-30T07:08:00.444Z,99177.69
2022-10-30T07:10:28.866Z,99165.63
2022-10-30T07:12:58.334Z,99178.84
2022-10-30T07:15:27.784Z,99169.81
2022-10-30T07:18:01.398Z,99167.00
2022-10-30T07:20:34.033Z,99164.38
2022-10-30T07:23:03.065Z,99165.13
2022-10-30T07:25:31.908Z,99162.50
2022-10-30T07:28:02.018Z,99151.19
2022-10-30T07:30:30.780Z,99150.44
2022-10-30T07:33:07.206Z,99153.06
2022-10-30T07:35:37.712Z,99157.56
2022-10-30T07:38:12.321Z,99150.00
2022-10-30T07:40:40.685Z,99151.84
2022-10-30T07:43:14.126Z,99152.41
2022-10-30T07:45:42.461Z,99145.56
2022-10-30T07:48:10.751Z,99154.41
2022-10-30T07:50:39.166Z,99156.81
2022-10-30T07:53:07.502Z,99152.47
2022-10-30T07:55:35.885Z,99152.69
2022-10-30T07:58:04.270Z,99144.41
2022-10-30T08:00:33.044Z,99148.53
2022-10-30T08:03:01.711Z,99138.56
2022-10-30T08:05:30.497Z,99142.47
2022-10-30T08:07:59.555Z,99134.53
2022-10-30T08:10:28.136Z,99139.44
2022-10-30T08:12:56.678Z,99134.34
2022-10-30T08:15:25.071Z,99135.09
2022-10-30T08:17:54.590Z,99135.09
2022-10-30T08:20:24.992Z,99132.28
2022-10-30T08:22:56.467Z,99129.25
2022-10-30T08:25:28.520Z,99136.19
2022-10-30T08:28:02.917Z,99134.47
2022-10-30T08:30:35.284Z,99139.94
2022-10-30T08:33:06.463Z,99136.47
2022-10-30T08:38:04.806Z,99129.59
2022-10-30T08:40:33.155Z,99136.34
2022-10-30T08:43:01.559Z,99132.91
2022-10-30T08:45:31.433Z,99136.06
2022-10-30T08:48:02.063Z,99136.19
2022-10-30T08:50:31.737Z,99139.91
2022-10-30T08:53:05.022Z,99140.78
2022-10-30T08:55:34.402Z,99146.22
2022-10-30T08:58:03.212Z,99141.13
2022-10-30T09:00:31.670Z,99147.31
2022-10-30T09:03:00.465Z,99149.38
2022-10-30T09:05:29.187Z,99149.91
2022-10-30T09:08:02.300Z,99142.56
2022-10-30T09:10:31.682Z,99151.34
2022-10-30T09:13:01.036Z,99149.59
2022-10-30T09:15:29.749Z,99148.44
2022-10-30T09:18:05.363Z,99157.03
2022-10-30T09:20:33.786Z,99159.22
2022-10-30T09:23:02.482Z,99165.75
2022-10-30T09:25:31.352Z,99173.53
2022-10-30T09:27:59.716Z,99175.19
2022-10-30T09:30:28.130Z,99172.28
2022-10-30T09:33:00.916Z,99178.22
2022-10-30T09:35:30.145Z,99179.84
2022-10-30T09:37:58.840Z,99182.75
2022-10-30T09:41:06.263Z,99182.13
2022-10-30T09:43:53.022Z,99185.59
2022-10-30T09:46:37.275Z,99196.44
2022-10-30T09:49:36.962Z,99196.53
2022-10-30T09:52:29.309Z,99195.88
2022-10-30T09:55:01.659Z,99195.22
2022-10-30T09:57:50.359Z,99209.41
2022-10-30T10:00:23.480Z,99212.34
2022-10-30T10:03:04.119Z,99215.22
2022-10-30T10:06:00.299Z,99219.41
2022-10-30T10:08:37.707Z,99234.34
2022-10-30T10:11:13.898Z,99228.81
2022-10-30T10:14:24.461Z,99236.06
2022-10-30T10:16:58.243Z,99241.00
2022-10-30T10:19:41.808Z,99251.59
2022-10-30T10:22:27.913Z,99260.13
2022-10-30T10:24:57.028Z,99256.66
2022-10-30T10:27:45.534Z,99249.56
2022-10-30T10:30:25.769Z,99255.03
2022-10-30T10:33:12.499Z,99262.00
2022-10-30T10:36:16.760Z,99261.66
2022-10-30T10:39:05.364Z,99268.38
2022-10-30T10:41:39.612Z,99281.00
2022-10-30T10:44:16.569Z,99284.44
2022-10-30T10:47:27.235Z,99283.50
2022-10-30T10:50:11.823Z,99278.22
2022-10-30T10:52:45.195Z,99282.91
2022-10-30T10:55:28.640Z,99285.53
2022-10-30T10:58:05.868Z,99287.38
2022-10-30T11:00:34.462Z,99285.16
2022-10-30T11:03:11.791Z,99291.38
2022-10-30T11:05:53.921Z,99294.78
2022-10-30T11:08:31.338Z,99289.72
2022-10-30T11:11:04.952Z,99299.47
2022-10-30T11:13:44.637Z,99299.53
2022-10-30T11:16:36.469Z,99299.84
2022-10-30T11:19:09.471Z,99301.91
2022-10-30T11:21:44.515Z,99310.16
2022-10-30T11:24:48.279Z,99311.47
2022-10-30T11:27:25.777Z,99312.81
2022-10-30T11:30:06.845Z,99318.44
2022-10-30T11:32:36.251Z,99315.13
2022-10-30T11:35:10.740Z,99315.94
2022-10-30T11:37:41.564Z,99319.03
2022-10-30T11:40:12.883Z,99323.63
2022-10-30T11:42:58.482Z,99322.63
2022-10-30T11:45:28.632Z,99319.88
2022-10-30T11:48:02.617Z,99315.78
2022-10-30T11:50:33.696Z,99322.19
2022-10-30T11:53:32.125Z,99325.75
2022-10-30T11:56:00.600Z,99320.19
2022-10-30T11:58:39.659Z,99325.81
2022-10-30T12:01:13.395Z,99335.50
2022-10-30T12:03:43.834Z,99332.97
2022-10-30T12:06:29.667Z,99344.47
2022-10-30T12:09:15.211Z,99350.88
2022-10-30T12:11:44.457Z,99351.13
2022-10-30T12:14:24.060Z,99361.09
2022-10-30T12:16:54.348Z,99358.06
2022-10-30T12:19:25.387Z,99361.09
2022-10-30T12:21:55.893Z,99366.69
2022-10-30T12:24:32.474Z,99378.94
2022-10-30T12:27:18.109Z,99381.25
2022-10-30T12:30:09.882Z,99383.81
2022-10-30T12:32:51.188Z,99388.91
2022-10-30T12:35:37.968Z,99388.41
2022-10-30T12:38:14.153Z,99390.69
2022-10-30T12:40:57.679Z,99388.13
2022-10-30T12:43:33.951Z,99391.94
2022-10-30T12:46:23.514Z,99390.91
2022-10-30T12:49:34.027Z,99392.72
2022-10-30T12:52:20.699Z,99397.81
2022-10-30T12:54:54.213Z,99398.06
2022-10-30T12:57:28.985Z,99397.56
2022-10-30T12:59:59.913Z,99402.16
2022-10-30T13:02:40.123Z,99399.59
2022-10-30T13:05:44.306Z,99405.72
2022-10-30T13:08:35.432Z,99407.47
2022-10-30T13:11:21.097Z,99414.09
2022-10-30T13:13:53.727Z,99416.66
2022-10-30T13:16:33.095Z,99422.00
2022-10-30T13:19:03.109Z,99428.88
2022-10-30T13:22:25.005Z,99422.50
2022-10-30T13:25:18.147Z,99426.06
2022-10-30T13:27:52.522Z,99430.13
2022-10-30T13:30:28.198Z,99429.88
2022-10-30T13:33:09.914Z,99426.31
2022-10-30T13:36:12.442Z,99428.09
2022-10-30T13:38:58.977Z,99423.00
2022-10-30T13:42:00.834Z,99417.91
2022-10-30T13:45:02.300Z,99426.56
2022-10-30T13:47:36.652Z,99424.03
2022-10-30T13:50:34.100Z,99426.28
2022-10-30T13:53:07.704Z,99425.00
2022-10-30T13:55:37.645Z,99428.03
2022-10-30T13:58:21.341Z,99424.19
2022-10-30T14:01:05.640Z,99425.97
2022-10-30T14:03:39.080Z,99429.28
2022-10-30T14:06:18.808Z,99434.13
2022-10-30T14:08:56.866Z,99424.94
2022-10-30T14:11:25.240Z,99426.47
2022-10-30T14:14:26.557Z,99431.31
2022-10-30T14:17:16.712Z,99429.03
2022-10-30T14:20:12.423Z,99432.59
2022-10-30T14:22:42.754Z,99435.88
2022-10-30T14:25:16.392Z,99427.22
2022-10-30T14:27:44.929Z,99431.31
2022-10-30T14:30:21.081Z,99432.56
2022-10-30T14:32:52.073Z,99428.25
2022-10-30T14:35:44.206Z,99425.16
2022-10-30T14:38:12.438Z,99433.31
2022-10-30T14:40:40.724Z,99433.03
2022-10-30T14:43:37.430Z,99432.78
2022-10-30T14:46:21.198Z,99433.28
2022-10-30T14:49:17.608Z,99435.06
2022-10-30T14:52:12.229Z,99433.28
2022-10-30T14:55:04.758Z,99434.28
2022-10-30T14:57:48.735Z,99424.84
2022-10-30T15:00:26.884Z,99431.72
2022-10-30T15:03:47.244Z,99432.22
2022-10-30T15:06:32.630Z,99441.13
2022-10-30T15:09:24.898Z,99429.66
2022-10-30T15:12:14.358Z,99437.31
2022-10-30T15:14:54.532Z,99432.97
2022-10-30T15:17:40.417Z,99436.25
2022-10-30T15:20:22.802Z,99441.84
2022-10-30T15:22:56.751Z,99435.47
2022-10-30T15:25:29.271Z,99437.50
2022-10-30T15:27:59.271Z,99440.31
2022-10-30T15:30:28.911Z,99442.84
2022-10-30T15:32:57.706Z,99441.31
2022-10-30T15:35:28.590Z,99445.38
2022-10-30T15:38:08.096Z,99447.41
2022-10-30T15:40:38.610Z,99448.69
2022-10-30T15:43:12.445Z,99451.22
2022-10-30T15:45:44.253Z,99445.63
2022-10-30T15:48:34.357Z,99446.91
2022-10-30T15:51:16.713Z,99447.41
2022-10-30T15:53:47.592Z,99445.88
2022-10-30T15:56:31.134Z,99451.69
2022-10-30T15:59:02.959Z,99445.84
2022-10-30T16:01:38.048Z,99451.16
2022-10-30T16:04:19.032Z,99443.78
2022-10-30T16:06:53.003Z,99449.13
2022-10-30T16:09:21.998Z,99449.56
2022-10-30T16:11:55.368Z,99443.69
2022-10-30T16:14:26.921Z,99441.41
2022-10-30T16:16:55.775Z,99443.94
2022-10-30T16:19:29.119Z,99447.22
2022-10-30T16:22:00.009Z,99434.25
2022-10-30T16:24:36.725Z,99438.31
2022-10-30T16:27:20.105Z,99437.53
2022-10-30T16:30:00.684Z,99439.09
2022-10-30T16:32:32.771Z,99431.47
2022-10-30T16:35:04.600Z,99433.75
2022-10-30T16:37:39.388Z,99427.41
2022-10-30T16:40:33.020Z,99421.03
2022-10-30T16:43:04.158Z,99423.31
2022-10-30T16:45:35.536Z,99430.44
2022-10-30T16:48:13.700Z,99428.41
2022-10-30T16:50:42.348Z,99427.66
2022-10-30T16:53:25.457Z,99424.34
2022-10-30T16:55:55.608Z,99421.28
2022-10-30T16:58:29.349Z,99423.31
2022-10-30T17:01:07.907Z,99419.25
2022-10-30T17:03:41.311Z,99416.97
2022-10-30T17:06:46.848Z,99426.13
2022-10-30T17:09:31.253Z,99422.06
2022-10-30T17:12:14.196Z,99420.78
2022-10-30T17:14:48.079Z,99409.59
2022-10-30T17:17:35.171Z,99419.00
2022-10-30T17:20:15.273Z,99405.03
2022-10-30T17:22:43.635Z,99406.78
2022-10-30T17:25:50.152Z,99409.31
2022-10-30T17:28:36.235Z,99400.41
2022-10-30T17:31:20.040Z,99400.16
2022-10-30T17:33:50.134Z,99399.09
2022-10-30T17:36:18.450Z,99403.69
2022-10-30T17:38:46.793Z,99399.06
2022-10-30T17:41:17.724Z,99405.66
2022-10-30T17:44:04.422Z,99403.34
2022-10-30T17:46:32.842Z,99400.03
2022-10-30T17:49:01.468Z,99401.28
2022-10-30T17:51:30.240Z,99388.31
2022-10-30T17:53:58.578Z,99394.91
2022-10-30T17:56:31.108Z,99398.19
2022-10-30T17:59:00.405Z,99387.50
2022-10-30T18:01:29.281Z,99378.38
2022-10-30T18:03:58.039Z,99383.97
2022-10-30T18:06:28.701Z,99388.00
2022-10-30T18:08:57.244Z,99390.53
2022-10-30T18:11:28.037Z,99386.22
2022-10-30T18:13:58.671Z,99379.59
2022-10-30T18:16:27.784Z,99385.19
2022-10-30T18:18:56.217Z,99380.06
2022-10-30T18:21:28.428Z,99374.97
2022-10-30T18:23:57.094Z,99375.97
2022-10-30T18:26:27.598Z,99372.16
2022-10-30T18:28:56.320Z,99376.72
2022-10-30T18:31:25.743Z,99367.28
2022-10-30T18:33:54.070Z,99369.81
2022-10-30T18:36:24.882Z,99370.31
2022-10-30T18:38:57.141Z,99366.50
2022-10-30T18:41:39.270Z,99363.69
2022-10-30T18:44:07.804Z,99362.63
2022-10-30T18:46:36.189Z,99367.97
2022-10-30T18:49:04.612Z,99365.66
2022-10-30T18:51:33.186Z,99357.78
2022-10-30T18:54:01.520Z,99355.47
2022-10-30T18:56:33.443Z,99361.53
2022-10-30T18:59:02.509Z,99363.28
2022-10-30T19:01:34.396Z,99354.16
2022-10-30T19:04:04.762Z,99350.59
2022-10-30T19:06:35.100Z,99347.53
2022-10-30T19:09:03.773Z,99349.06
2022-10-30T19:11:32.271Z,99346.78
2022-10-30T19:14:02.477Z,99341.69
2022-10-30T19:16:30.888Z,99340.91
2022-10-30T19:18:59.211Z,99346.72
2022-10-30T19:21:28.834Z,99348.00
2022-10-30T19:23:57.293Z,99328.94
2022-10-30T19:26:25.674Z,99335.78
2022-10-30T19:28:53.978Z,99327.91
2022-10-30T19:31:22.393Z,99336.78
2022-10-30T19:33:54.598Z,99333.72
2022-10-30T19:36:30.904Z,99328.13
2022-10-30T19:39:02.885Z,99323.81
2022-10-30T19:41:35.700Z,99327.09
2022-10-30T19:44:04.105Z,99327.88
2022-10-30T19:46:32.481Z,99317.19
2022-10-30T19:49:00.968Z,99314.88
2022-10-30T19:51:30.036Z,99319.69
2022-10-30T19:53:58.419Z,99311.81
2022-10-30T19:56:26.813Z,99314.34
2022-10-30T19:58:55.169Z,99308.00
2022-10-30T20:01:23.673Z,99310.25
2022-10-30T20:03:52.085Z,99317.34
2022-10-30T20:06:22.156Z,99317.59
2022-10-30T20:08:50.560Z,99308.94
2022-10-30T20:11:18.886Z,99316.53
2022-10-30T20:13:49.415Z,99312.22
2022-10-30T20:16:20.481Z,99317.81
2022-10-30T20:18:48.834Z,99314.25
2022-10-30T20:21:17.246Z,99313.50
2022-10-30T20:23:47.022Z,99315.50
2022-10-30T20:26:29.287Z,99320.06
2022-10-30T20:28:57.913Z,99315.75
2022-10-30T20:31:26.296Z,99319.03
2022-10-30T20:33:54.582Z,99321.81
2022-10-30T20:36:22.928Z,99318.75
2022-10-30T20:38:51.269Z,99320.78
2022-10-30T20:41:25.342Z,99312.91
2022-10-30T20:43:53.905Z,99317.22
2022-10-30T20:46:23.076Z,99314.94
2022-10-30T20:48:51.473Z,99325.78
2022-10-30T20:51:19.825Z,99317.91
2022-10-30T20:53:48.180Z,99312.81
2022-10-30T20:56:16.805Z,99316.13
2022-10-30T20:58:45.139Z,99313.81
2022-10-30T21:01:14.610Z,99317.88
2022-10-30T21:03:43.067Z,99317.09
2022-10-30T21:06:11.488Z,99319.63
2022-10-30T21:08:40.018Z,99318.84
2022-10-30T21:11:09.350Z,99316.84
2022-10-30T21:13:38.439Z,99311.75
2022-10-30T21:16:09.750Z,99318.09
2022-10-30T21:18:38.079Z,99301.84
2022-10-30T21:21:09.679Z,99308.69
2022-10-30T21:23:38.153Z,99303.56
2022-10-30T21:26:11.874Z,99313.19
2022-10-30T21:28:41.521Z,99310.91
2022-10-30T21:31:13.470Z,99310.13
2022-10-30T21:33:41.803Z,99304.56
2022-10-30T21:36:16.951Z,99314.19
2022-10-30T21:38:45.708Z,99311.88
2022-10-30T21:41:17.271Z,99315.16
2022-10-30T21:43:54.292Z,99316.69
2022-10-30T21:46:24.753Z,99317.97
2022-10-30T21:48:53.955Z,99320.00
2022-10-30T21:51:27.379Z,99321.25
2022-10-30T21:53:57.242Z,99326.81
2022-10-30T21:56:30.534Z,99320.47
2022-10-30T21:59:01.336Z,99322.50
2022-10-30T22:01:31.575Z,99325.78
2022-10-30T22:04:05.370Z,99329.53
2022-10-30T22:06:34.107Z,99332.81
2022-10-30T22:09:02.453Z,99329.75
2022-10-30T22:11:31.193Z,99336.59
2022-10-30T22:14:02.670Z,99336.31
2022-10-30T22:16:33.002Z,99340.63
2022-10-30T22:19:02.728Z,99345.16
2022-10-30T22:21:31.708Z,99347.19
2022-10-30T22:24:04.675Z,99351.25
2022-10-30T22:26:33.330Z,99355.78
2022-10-30T22:29:02.253Z,99349.44
2022-10-30T22:31:31.636Z,99349.94
2022-10-30T22:34:03.521Z,99360.31
2022-10-30T22:36:33.775Z,99363.88
2022-10-30T22:39:08.473Z,99365.63
2022-10-30T22:41:38.302Z,99379.28
2022-10-30T22:44:09.254Z,99379.28
2022-10-30T22:46:38.075Z,99379.78
2022-10-30T22:49:07.543Z,99388.63
2022-10-30T22:51:37.679Z,99381.53
2022-10-30T22:54:08.182Z,99382.00
2022-10-30T22:56:38.007Z,99395.66
2022-10-30T22:59:09.429Z,99399.69
2022-10-30T23:01:39.614Z,99389.78
2022-10-30T23:04:09.446Z,99407.28
2022-10-30T23:06:38.229Z,99405.25
2022-10-30T23:09:10.461Z,99402.97
2022-10-30T23:11:38.807Z,99405.75
2022-10-30T23:14:07.158Z,99405.00
2022-10-30T23:16:35.483Z,99412.09
2022-10-30T23:19:03.827Z,99412.88
2022-10-30T23:21:33.204Z,99410.06
2022-10-30T23:24:03.987Z,99424.28
2022-10-30T23:26:35.541Z,99413.91
2022-10-30T23:29:04.671Z,99427.41
2022-10-30T23:31:40.221Z,99422.59
2022-10-30T23:34:11.443Z,99431.22
2022-10-30T23:36:40.647Z,99434.28
2022-10-30T23:39:12.218Z,99437.09
2022-10-30T23:41:40.511Z,99446.97
2022-10-30T23:44:14.360Z,99450.53
2022-10-30T23:46:42.699Z,99457.16
2022-10-30T23:49:11.124Z,99454.66
2022-10-30T23:51:39.416Z,99469.66
2022-10-30T23:54:07.789Z,99469.91
2022-10-30T23:56:36.139Z,99470.97
2022-10-30T23:59:04.490Z,99476.34
